Achinsk, Russia
Current Conditions -  °F | °C
As of 10:00 PM on Friday 19 Dec 2014 (Local Time) from UNKL Reporting Station
Blowing Snow Blowing Snow  
Wind Chill: 10°   Ceiling: 8300
Heat Index: 23°   Visibility: 2.9mi
Dew Point: 16°   Wind: 16mph
Humidity: 74%   Direction: 250°WSW
Pressure: 30.45"   Gusts: 25mph
Location:  56.28°N, 90.5°E
Report Text: UNKL 191500Z 25007G11MPS 4700 -SHSN BLSN SCT033CB OVC083M05/M09 Q1031 TEMPO 23011G16MPS 1000 SHSN BLSN RMK QFE747 29////55
Loading
Personal Weather Stations






























Interactive Weather Map New forecast layout! Learn more

10-Day Weather Forecast

Advertisements
Track Severe Weather on mobile